Tabellarische Übersicht vom Mittwoch, den 26.06.2019

Oder anderes Datum wählen:






max 31,6°C 86,0% 21,0°C 1023,7hPa 32,0°C 0,0km/h (0Bft) 0,0km/h 0° (N) ∑0,0l/m² 109,000klx ∑0,0min
min 23,0°C 49,0% 18,9°C 1018,8hPa 23,0°C 0,0km/h (0Bft) 0,0km/h 0° (N) ∑0,0l/m² 0,000klx ∑0,0min
Ø 27,0°C 68,0% 20,1°C 1022,0hPa 27,0°C 0,0km/h (0Bft) 0,0km/h 0° (N) ∑0,0l/m² 55,000klx ∑0,0min
Zeit Temperatur Luftfeuchte Taupunkt Luftdruck Windchill Windböen Windgeschwindigkeit Windrichtung Regen Helligkeit Regenzeit
18:00 31,2°C 51,3% 19,9°C 1022,7hPa 31,2°C 0,0km/h (0Bft) 0,0km/h 0,0l/m² 45,936klx 0,0min
17:55 31,2°C 50,8% 19,7°C 1022,8hPa 31,2°C 0,0km/h (0Bft) 0,0km/h 0,0l/m² 41,987klx 0,0min
17:50 31,2°C 51,0% 19,9°C 1022,8hPa 31,2°C 0,0km/h (0Bft) 0,0km/h 0,0l/m² 47,170klx 0,0min
17:45 31,3°C 51,5% 20,1°C 1022,7hPa 31,3°C 0,0km/h (0Bft) 0,0km/h 0,0l/m² 51,049klx 0,0min
17:40 31,3°C 50,5% 19,8°C 1022,8hPa 31,3°C 0,0km/h (0Bft) 0,0km/h 0,0l/m² 51,963klx 0,0min
17:35 31,2°C 51,6% 20,1°C 1022,8hPa 31,2°C 0,0km/h (0Bft) 0,0km/h 0,0l/m² 51,878klx 0,0min
17:30 31,4°C 51,9% 20,3°C 1022,9hPa 31,4°C 0,0km/h (0Bft) 0,0km/h 0,0l/m² 52,317klx 0,0min
17:25 31,3°C 50,8% 19,9°C 1022,9hPa 31,3°C 0,0km/h (0Bft) 0,0km/h 0,0l/m² 55,638klx 0,0min
17:20 31,3°C 50,6% 19,9°C 1023,0hPa 31,3°C 0,0km/h (0Bft) 0,0km/h 0,0l/m² 53,891klx 0,0min
17:15 31,5°C 50,4% 19,9°C 1023,0hPa 31,5°C 0,0km/h (0Bft) 0,0km/h 0,0l/m² 58,059klx 0,0min
17:10 31,6°C 50,0% 19,9°C 1023,1hPa 31,6°C 0,0km/h (0Bft) 0,0km/h 0,0l/m² 63,061klx 0,0min
17:05 31,4°C 51,1% 20,1°C 1023,1hPa 31,4°C 0,0km/h (0Bft) 0,0km/h 0,0l/m² 67,263klx 0,0min
17:00 31,2°C 51,3% 19,9°C 1023,1hPa 31,2°C 0,0km/h (0Bft) 0,0km/h 0,0l/m² 65,167klx 0,0min
16:55 30,9°C 52,9% 20,2°C 1023,2hPa 30,9°C 0,0km/h (0Bft) 0,0km/h 0,0l/m² 67,479klx 0,0min
16:50 31,1°C 51,8% 20,0°C 1023,2hPa 31,1°C 0,0km/h (0Bft) 0,0km/h 0,0l/m² 68,497klx 0,0min
16:45 31,1°C 51,8% 20,0°C 1023,2hPa 31,1°C 0,0km/h (0Bft) 0,0km/h 0,0l/m² 67,753klx 0,0min
16:40 31,0°C 51,7% 19,9°C 1023,3hPa 31,0°C 0,0km/h (0Bft) 0,0km/h 0,0l/m² 65,678klx 0,0min
16:35 31,2°C 51,3% 20,0°C 1023,3hPa 31,2°C 0,0km/h (0Bft) 0,0km/h 0,0l/m² 67,666klx 0,0min
16:30 30,8°C 50,9% 19,4°C 1023,3hPa 30,8°C 0,0km/h (0Bft) 0,0km/h 0,0l/m² 68,723klx 0,0min
16:25 31,1°C 50,0% 19,5°C 1023,4hPa 31,1°C 0,0km/h (0Bft) 0,0km/h 0,0l/m² 75,679klx 0,0min
16:20 31,0°C 51,8% 19,9°C 1023,4hPa 31,0°C 0,0km/h (0Bft) 0,0km/h 0,0l/m² 76,543klx 0,0min
16:15 30,9°C 51,8% 19,8°C 1023,5hPa 30,9°C 0,0km/h (0Bft) 0,0km/h 0,0l/m² 75,631klx 0,0min
16:10 31,0°C 49,9% 19,4°C 1023,5hPa 31,0°C 0,0km/h (0Bft) 0,0km/h 0,0l/m² 76,905klx 0,0min
16:05 30,8°C 49,2% 18,9°C 1023,5hPa 30,8°C 0,0km/h (0Bft) 0,0km/h 0,0l/m² 73,197klx 0,0min
16:00 30,8°C 52,2% 19,8°C 1023,5hPa 30,8°C 0,0km/h (0Bft) 0,0km/h 0,0l/m² 74,794klx 0,0min
15:55 31,0°C 50,6% 19,6°C 1023,5hPa 31,0°C 0,0km/h (0Bft) 0,0km/h 0,0l/m² 76,651klx 0,0min
15:50 30,9°C 50,7% 19,5°C 1023,5hPa 30,9°C 0,0km/h (0Bft) 0,0km/h 0,0l/m² 74,069klx 0,0min
15:45 30,9°C 50,9% 19,6°C 1023,4hPa 30,9°C 0,0km/h (0Bft) 0,0km/h 0,0l/m² 77,886klx 0,0min
15:40 30,4°C 52,7% 19,6°C 1023,4hPa 30,4°C 0,0km/h (0Bft) 0,0km/h 0,0l/m² 81,312klx 0,0min
15:35 30,4°C 52,6% 19,6°C 1023,5hPa 30,4°C 0,0km/h (0Bft) 0,0km/h 0,0l/m² 86,931klx 0,0min
15:30 30,5°C 53,3% 19,9°C 1023,5hPa 30,5°C 0,0km/h (0Bft) 0,0km/h 0,0l/m² 88,471klx 0,0min
15:25 30,3°C 52,9% 19,6°C 1023,6hPa 30,3°C 0,0km/h (0Bft) 0,0km/h 0,0l/m² 88,318klx 0,0min
15:20 30,2°C 53,7% 19,7°C 1023,6hPa 30,2°C 0,0km/h (0Bft) 0,0km/h 0,0l/m² 86,343klx 0,0min
15:15 30,3°C 53,6% 19,8°C 1023,6hPa 30,3°C 0,0km/h (0Bft) 0,0km/h 0,0l/m² 87,176klx 0,0min
15:10 30,3°C 53,3% 19,8°C 1023,6hPa 30,3°C 0,0km/h (0Bft) 0,0km/h 0,0l/m² 89,104klx 0,0min
15:05 30,0°C 53,3% 19,5°C 1023,6hPa 30,0°C 0,0km/h (0Bft) 0,0km/h 0,0l/m² 94,113klx 0,0min
15:00 30,1°C 52,9% 19,4°C 1023,6hPa 30,1°C 0,0km/h (0Bft) 0,0km/h 0,0l/m² 97,546klx 0,0min
14:55 30,1°C 53,2% 19,5°C 1023,6hPa 30,1°C 0,0km/h (0Bft) 0,0km/h 0,0l/m² 93,918klx 0,0min
14:50 30,0°C 53,8% 19,6°C 1023,6hPa 30,0°C 0,0km/h (0Bft) 0,0km/h 0,0l/m² 88,416klx 0,0min
14:45 30,2°C 52,8% 19,5°C 1023,6hPa 30,2°C 0,0km/h (0Bft) 0,0km/h 0,0l/m² 89,903klx 0,0min
14:40 30,4°C 53,7% 19,9°C 1023,6hPa 30,4°C 0,0km/h (0Bft) 0,0km/h 0,0l/m² 92,858klx 0,0min
14:35 30,3°C 53,7% 19,9°C 1023,6hPa 30,3°C 0,0km/h (0Bft) 0,0km/h 0,0l/m² 91,253klx 0,0min
14:30 30,2°C 54,4% 19,9°C 1023,5hPa 30,2°C 0,0km/h (0Bft) 0,0km/h 0,0l/m² 92,396klx 0,0min
14:25 29,6°C 55,6% 19,8°C 1023,5hPa 29,6°C 0,0km/h (0Bft) 0,0km/h 0,0l/m² 92,409klx 0,0min
14:20 29,8°C 54,2% 19,6°C 1023,6hPa 29,8°C 0,0km/h (0Bft) 0,0km/h 0,0l/m² 88,087klx 0,0min
14:15 30,2°C 52,9% 19,6°C 1023,6hPa 30,2°C 0,0km/h (0Bft) 0,0km/h 0,0l/m² 85,326klx 0,0min
14:10 30,1°C 53,5% 19,6°C 1023,7hPa 30,1°C 0,0km/h (0Bft) 0,0km/h 0,0l/m² 87,254klx 0,0min
14:05 29,6°C 54,9% 19,5°C 1023,7hPa 29,6°C 0,0km/h (0Bft) 0,0km/h 0,0l/m² 80,884klx 0,0min
14:00 29,7°C 54,6% 19,6°C 1023,7hPa 29,7°C 0,0km/h (0Bft) 0,0km/h 0,0l/m² 82,078klx 0,0min
13:55 29,5°C 55,6% 19,7°C 1023,7hPa 29,5°C 0,0km/h (0Bft) 0,0km/h 0,0l/m² 82,745klx 0,0min
13:50 29,7°C 54,4% 19,5°C 1023,6hPa 29,7°C 0,0km/h (0Bft) 0,0km/h 0,0l/m² 82,741klx 0,0min
13:45 29,7°C 55,2% 19,8°C 1023,6hPa 29,7°C 0,0km/h (0Bft) 0,0km/h 0,0l/m² 83,699klx 0,0min
13:40 29,8°C 54,5% 19,6°C 1023,6hPa 29,8°C 0,0km/h (0Bft) 0,0km/h 0,0l/m² 86,376klx 0,0min
13:35 30,2°C 54,6% 20,0°C 1023,6hPa 30,2°C 0,0km/h (0Bft) 0,0km/h 0,0l/m² 89,272klx 0,0min
13:30 29,9°C 54,7% 19,8°C 1023,6hPa 29,9°C 0,0km/h (0Bft) 0,0km/h 0,0l/m² 97,458klx 0,0min
13:25 29,6°C 56,2% 19,9°C 1023,6hPa 29,6°C 0,0km/h (0Bft) 0,0km/h 0,0l/m² 98,714klx 0,0min
13:20 29,2°C 56,4% 19,7°C 1023,6hPa 29,2°C 0,0km/h (0Bft) 0,0km/h 0,0l/m² 98,775klx 0,0min
13:15 29,4°C 56,3% 19,8°C 1023,7hPa 29,4°C 0,0km/h (0Bft) 0,0km/h 0,0l/m² 98,221klx 0,0min
13:10 29,5°C 56,4% 19,9°C 1023,7hPa 29,5°C 0,0km/h (0Bft) 0,0km/h 0,0l/m² 82,634klx 0,0min
13:05 29,6°C 55,4% 19,7°C 1023,7hPa 29,6°C 0,0km/h (0Bft) 0,0km/h 0,0l/m² 80,709klx 0,0min
13:00 29,7°C 55,2% 19,8°C 1023,7hPa 29,7°C 0,0km/h (0Bft) 0,0km/h 0,0l/m² 82,531klx 0,0min
12:55 29,5°C 55,2% 19,6°C 1023,7hPa 29,5°C 0,0km/h (0Bft) 0,0km/h 0,0l/m² 84,861klx 0,0min
12:50 29,1°C 54,9% 19,1°C 1023,6hPa 29,1°C 0,0km/h (0Bft) 0,0km/h 0,0l/m² 85,558klx 0,0min
12:45 29,0°C 56,4% 19,4°C 1023,6hPa 29,0°C 0,0km/h (0Bft) 0,0km/h 0,0l/m² 85,890klx 0,0min
12:40 29,3°C 55,9% 19,6°C 1023,6hPa 29,3°C 0,0km/h (0Bft) 0,0km/h 0,0l/m² 86,182klx 0,0min
12:35 29,4°C 55,4% 19,5°C 1023,5hPa 29,4°C 0,0km/h (0Bft) 0,0km/h 0,0l/m² 89,605klx 0,0min
12:30 29,2°C 55,9% 19,5°C 1023,5hPa 29,2°C 0,0km/h (0Bft) 0,0km/h 0,0l/m² 102,436klx 0,0min
12:25 28,9°C 56,0% 19,2°C 1023,5hPa 28,9°C 0,0km/h (0Bft) 0,0km/h 0,0l/m² 100,535klx 0,0min
12:20 29,0°C 54,4% 18,9°C 1023,5hPa 29,0°C 0,0km/h (0Bft) 0,0km/h 0,0l/m² 108,557klx 0,0min
12:15 29,0°C 54,9% 19,0°C 1023,5hPa 29,0°C 0,0km/h (0Bft) 0,0km/h 0,0l/m² 99,200klx 0,0min
12:10 29,0°C 55,1% 19,0°C 1023,4hPa 29,0°C 0,0km/h (0Bft) 0,0km/h 0,0l/m² 93,593klx 0,0min
12:05 28,9°C 55,8% 19,2°C 1023,4hPa 28,9°C 0,0km/h (0Bft) 0,0km/h 0,0l/m² 88,250klx 0,0min
12:00 28,9°C 55,4% 19,1°C 1023,4hPa 28,9°C 0,0km/h (0Bft) 0,0km/h 0,0l/m² 83,216klx 0,0min
11:55 28,8°C 56,7% 19,4°C 1023,4hPa 28,8°C 0,0km/h (0Bft) 0,0km/h 0,0l/m² 87,192klx 0,0min
11:50 28,8°C 58,4% 19,8°C 1023,4hPa 28,8°C 0,0km/h (0Bft) 0,0km/h 0,0l/m² 92,312klx 0,0min
11:45 28,8°C 59,1% 20,0°C 1023,4hPa 28,8°C 0,0km/h (0Bft) 0,0km/h 0,0l/m² 84,260klx 0,0min
11:40 28,4°C 60,2% 20,0°C 1023,5hPa 28,4°C 0,0km/h (0Bft) 0,0km/h 0,0l/m² 81,011klx 0,0min
11:35 28,7°C 59,5% 20,0°C 1023,5hPa 28,7°C 0,0km/h (0Bft) 0,0km/h 0,0l/m² 84,678klx 0,0min
11:30 28,3°C 59,6% 19,7°C 1023,5hPa 28,3°C 0,0km/h (0Bft) 0,0km/h 0,0l/m² 88,930klx 0,0min
11:25 28,4°C 60,5% 20,0°C 1023,5hPa 28,4°C 0,0km/h (0Bft) 0,0km/h 0,0l/m² 90,361klx 0,0min
11:20 28,0°C 60,7% 19,7°C 1023,5hPa 28,0°C 0,0km/h (0Bft) 0,0km/h 0,0l/m² 83,803klx 0,0min
11:15 28,0°C 60,6% 19,7°C 1023,5hPa 28,0°C 0,0km/h (0Bft) 0,0km/h 0,0l/m² 75,800klx 0,0min
11:10 27,9°C 60,6% 19,6°C 1023,5hPa 27,9°C 0,0km/h (0Bft) 0,0km/h 0,0l/m² 73,290klx 0,0min
11:05 28,1°C 60,7% 19,8°C 1023,5hPa 28,1°C 0,0km/h (0Bft) 0,0km/h 0,0l/m² 72,733klx 0,0min
11:00 28,1°C 61,0% 19,9°C 1023,4hPa 28,1°C 0,0km/h (0Bft) 0,0km/h 0,0l/m² 80,595klx 0,0min
10:55 28,2°C 62,1% 20,3°C 1023,4hPa 28,2°C 0,0km/h (0Bft) 0,0km/h 0,0l/m² 76,716klx 0,0min
10:50 28,0°C 62,6% 20,2°C 1023,4hPa 28,0°C 0,0km/h (0Bft) 0,0km/h 0,0l/m² 80,944klx 0,0min
10:45 28,2°C 62,0% 20,2°C 1023,3hPa 28,2°C 0,0km/h (0Bft) 0,0km/h 0,0l/m² 70,903klx 0,0min
10:40 27,9°C 63,2% 20,3°C 1023,3hPa 27,9°C 0,0km/h (0Bft) 0,0km/h 0,0l/m² 65,944klx 0,0min
10:35 27,7°C 63,5% 20,2°C 1023,3hPa 27,7°C 0,0km/h (0Bft) 0,0km/h 0,0l/m² 74,853klx 0,0min
10:30 27,6°C 63,5% 20,0°C 1023,2hPa 27,6°C 0,0km/h (0Bft) 0,0km/h 0,0l/m² 74,002klx 0,0min
10:25 27,7°C 63,7% 20,1°C 1023,3hPa 27,7°C 0,0km/h (0Bft) 0,0km/h 0,0l/m² 66,455klx 0,0min
10:20 27,5°C 64,6% 20,2°C 1023,2hPa 27,5°C 0,0km/h (0Bft) 0,0km/h 0,0l/m² 65,193klx 0,0min
10:15 27,3°C 64,9% 20,1°C 1023,2hPa 27,3°C 0,0km/h (0Bft) 0,0km/h 0,0l/m² 68,732klx 0,0min
10:10 27,2°C 64,2% 19,8°C 1023,2hPa 27,2°C 0,0km/h (0Bft) 0,0km/h 0,0l/m² 61,881klx 0,0min
10:05 27,1°C 64,5% 19,8°C 1023,2hPa 27,1°C 0,0km/h (0Bft) 0,0km/h 0,0l/m² 60,637klx 0,0min
10:00 26,9°C 65,7% 20,0°C 1023,1hPa 26,9°C 0,0km/h (0Bft) 0,0km/h 0,0l/m² 63,454klx 0,0min
09:55 26,9°C 66,9% 20,2°C 1023,1hPa 26,9°C 0,0km/h (0Bft) 0,0km/h 0,0l/m² 65,353klx 0,0min
09:50 27,0°C 67,4% 20,4°C 1023,1hPa 27,0°C 0,0km/h (0Bft) 0,0km/h 0,0l/m² 69,582klx 0,0min
09:45 26,8°C 67,1% 20,1°C 1023,0hPa 26,8°C 0,0km/h (0Bft) 0,0km/h 0,0l/m² 60,684klx 0,0min
09:40 26,5°C 67,7% 20,1°C 1023,0hPa 26,5°C 0,0km/h (0Bft) 0,0km/h 0,0l/m² 59,908klx 0,0min
09:35 26,5°C 68,6% 20,2°C 1022,9hPa 26,5°C 0,0km/h (0Bft) 0,0km/h 0,0l/m² 58,269klx 0,0min
09:30 26,4°C 69,8% 20,4°C 1022,9hPa 26,4°C 0,0km/h (0Bft) 0,0km/h 0,0l/m² 55,665klx 0,0min
09:25 26,3°C 70,7% 20,5°C 1022,9hPa 26,3°C 0,0km/h (0Bft) 0,0km/h 0,0l/m² 52,558klx 0,0min
09:20 26,2°C 71,5% 20,7°C 1022,8hPa 26,2°C 0,0km/h (0Bft) 0,0km/h 0,0l/m² 50,417klx 0,0min
09:15 25,9°C 71,5% 20,4°C 1022,7hPa 25,9°C 0,0km/h (0Bft) 0,0km/h 0,0l/m² 45,655klx 0,0min
09:10 26,0°C 71,8% 20,5°C 1022,7hPa 26,0°C 0,0km/h (0Bft) 0,0km/h 0,0l/m² 43,342klx 0,0min
09:05 25,8°C 72,4% 20,4°C 1022,7hPa 25,8°C 0,0km/h (0Bft) 0,0km/h 0,0l/m² 41,617klx 0,0min
09:00 25,6°C 72,4% 20,3°C 1022,6hPa 25,6°C 0,0km/h (0Bft) 0,0km/h 0,0l/m² 42,546klx 0,0min
08:55 25,6°C 72,8% 20,3°C 1022,6hPa 25,6°C 0,0km/h (0Bft) 0,0km/h 0,0l/m² 41,925klx 0,0min
08:50 25,5°C 73,2% 20,4°C 1022,6hPa 25,5°C 0,0km/h (0Bft) 0,0km/h 0,0l/m² 40,869klx 0,0min
08:45 25,4°C 74,9% 20,7°C 1022,5hPa 25,4°C 0,0km/h (0Bft) 0,0km/h 0,0l/m² 41,545klx 0,0min
08:40 25,2°C 75,7% 20,6°C 1022,5hPa 25,2°C 0,0km/h (0Bft) 0,0km/h 0,0l/m² 37,564klx 0,0min
08:35 25,2°C 76,3% 20,7°C 1022,5hPa 25,2°C 0,0km/h (0Bft) 0,0km/h 0,0l/m² 35,648klx 0,0min
08:30 25,1°C 77,0% 20,8°C 1022,5hPa 25,1°C 0,0km/h (0Bft) 0,0km/h 0,0l/m² 33,375klx 0,0min
08:25 25,1°C 77,2% 20,8°C 1022,4hPa 25,1°C 0,0km/h (0Bft) 0,0km/h 0,0l/m² 32,306klx 0,0min
08:20 25,0°C 77,4% 20,8°C 1022,3hPa 25,0°C 0,0km/h (0Bft) 0,0km/h 0,0l/m² 32,137klx 0,0min
08:15 24,9°C 77,7% 20,8°C 1022,3hPa 24,9°C 0,0km/h (0Bft) 0,0km/h 0,0l/m² 30,843klx 0,0min
08:10 24,8°C 78,6% 20,8°C 1022,3hPa 24,8°C 0,0km/h (0Bft) 0,0km/h 0,0l/m² 29,584klx 0,0min
08:05 24,7°C 78,9% 20,8°C 1022,3hPa 24,7°C 0,0km/h (0Bft) 0,0km/h 0,0l/m² 27,591klx 0,0min
08:00 24,7°C 79,1% 20,8°C 1022,3hPa 24,7°C 0,0km/h (0Bft) 0,0km/h 0,0l/m² 26,270klx 0,0min
07:55 24,6°C 80,1% 21,0°C 1022,3hPa 24,6°C 0,0km/h (0Bft) 0,0km/h 0,0l/m² 24,271klx 0,0min
07:50 24,4°C 80,6% 20,8°C 1022,2hPa 24,4°C 0,0km/h (0Bft) 0,0km/h 0,0l/m² 23,299klx 0,0min
07:45 24,2°C 81,6% 20,9°C 1022,1hPa 24,2°C 0,0km/h (0Bft) 0,0km/h 0,0l/m² 22,007klx 0,0min
07:40 24,1°C 81,7% 20,8°C 1022,1hPa 24,1°C 0,0km/h (0Bft) 0,0km/h 0,0l/m² 20,408klx 0,0min
07:35 24,0°C 82,2% 20,8°C 1022,1hPa 24,0°C 0,0km/h (0Bft) 0,0km/h 0,0l/m² 19,247klx 0,0min
07:30 24,0°C 82,2% 20,8°C 1022,0hPa 24,0°C 0,0km/h (0Bft) 0,0km/h 0,0l/m² 17,955klx 0,0min
07:25 23,9°C 82,2% 20,7°C 1022,0hPa 23,9°C 0,0km/h (0Bft) 0,0km/h 0,0l/m² 16,748klx 0,0min
07:20 23,8°C 82,0% 20,6°C 1022,0hPa 23,8°C 0,0km/h (0Bft) 0,0km/h 0,0l/m² 15,684klx 0,0min
07:15 23,7°C 82,1% 20,5°C 1021,9hPa 23,7°C 0,0km/h (0Bft) 0,0km/h 0,0l/m² 14,586klx 0,0min
07:10 23,7°C 82,0% 20,4°C 1021,9hPa 23,7°C 0,0km/h (0Bft) 0,0km/h 0,0l/m² 13,571klx 0,0min
07:05 23,6°C 83,2% 20,6°C 1021,9hPa 23,6°C 0,0km/h (0Bft) 0,0km/h 0,0l/m² 12,546klx 0,0min
07:00 23,5°C 83,3% 20,5°C 1021,9hPa 23,5°C 0,0km/h (0Bft) 0,0km/h 0,0l/m² 10,461klx 0,0min
06:55 23,4°C 84,6% 20,7°C 1021,9hPa 23,4°C 0,0km/h (0Bft) 0,0km/h 0,0l/m² 9,409klx 0,0min
06:50 23,4°C 85,1% 20,8°C 1021,8hPa 23,4°C 0,0km/h (0Bft) 0,0km/h 0,0l/m² 8,770klx 0,0min
06:45 23,4°C 85,3% 20,8°C 1021,7hPa 23,4°C 0,0km/h (0Bft) 0,0km/h 0,0l/m² 8,129klx 0,0min
06:40 23,3°C 85,6% 20,8°C 1021,6hPa 23,3°C 0,0km/h (0Bft) 0,0km/h 0,0l/m² 7,480klx 0,0min
06:35 23,3°C 85,5% 20,8°C 1021,6hPa 23,3°C 0,0km/h (0Bft) 0,0km/h 0,0l/m² 6,868klx 0,0min
06:30 23,3°C 85,6% 20,7°C 1021,6hPa 23,3°C 0,0km/h (0Bft) 0,0km/h 0,0l/m² 6,285klx 0,0min
06:25 23,3°C 85,5% 20,7°C 1021,5hPa 23,3°C 0,0km/h (0Bft) 0,0km/h 0,0l/m² 5,763klx 0,0min
06:20 23,3°C 85,3% 20,6°C 1021,5hPa 23,3°C 0,0km/h (0Bft) 0,0km/h 0,0l/m² 5,221klx 0,0min
06:15 23,1°C 85,5% 20,6°C 1021,4hPa 23,1°C 0,0km/h (0Bft) 0,0km/h 0,0l/m² 4,666klx 0,0min
06:10 23,1°C 85,6% 20,5°C 1021,4hPa 23,1°C 0,0km/h (0Bft) 0,0km/h 0,0l/m² 4,156klx 0,0min
06:05 23,1°C 85,6% 20,5°C 1021,3hPa 23,1°C 0,0km/h (0Bft) 0,0km/h 0,0l/m² 3,670klx 0,0min
06:00 23,1°C 85,5% 20,5°C 1021,2hPa 23,1°C 0,0km/h (0Bft) 0,0km/h 0,0l/m² 3,165klx 0,0min
05:55 23,2°C 85,3% 20,5°C 1021,2hPa 23,2°C 0,0km/h (0Bft) 0,0km/h 0,0l/m² 2,711klx 0,0min
05:50 23,2°C 85,0% 20,5°C 1021,2hPa 23,2°C 0,0km/h (0Bft) 0,0km/h 0,0l/m² 2,310klx 0,0min
05:45 23,1°C 85,3% 20,5°C 1021,2hPa 23,1°C 0,0km/h (0Bft) 0,0km/h 0,0l/m² 1,928klx 0,0min
05:40 23,0°C 85,1% 20,4°C 1021,1hPa 23,0°C 0,0km/h (0Bft) 0,0km/h 0,0l/m² 1,576klx 0,0min
05:35 23,0°C 84,9% 20,3°C 1021,0hPa 23,0°C 0,0km/h (0Bft) 0,0km/h 0,0l/m² 1,253klx 0,0min
05:30 23,0°C 84,8% 20,3°C 1020,9hPa 23,0°C 0,0km/h (0Bft) 0,0km/h 0,0l/m² 0,976klx 0,0min
05:25 23,1°C 84,4% 20,3°C 1020,9hPa 23,1°C 0,0km/h (0Bft) 0,0km/h 0,0l/m² 0,733klx 0,0min
05:20 23,2°C 84,2% 20,4°C 1020,8hPa 23,2°C 0,0km/h (0Bft) 0,0km/h 0,0l/m² 0,539klx 0,0min
05:15 23,2°C 84,3% 20,4°C 1020,7hPa 23,2°C 0,0km/h (0Bft) 0,0km/h 0,0l/m² 0,387klx 0,0min
05:10 23,3°C 84,0% 20,4°C 1020,7hPa 23,3°C 0,0km/h (0Bft) 0,0km/h 0,0l/m² 0,260klx 0,0min
05:05 23,3°C 83,5% 20,4°C 1020,7hPa 23,3°C 0,0km/h (0Bft) 0,0km/h 0,0l/m² 0,166klx 0,0min
05:00 23,3°C 83,3% 20,3°C 1020,6hPa 23,3°C 0,0km/h (0Bft) 0,0km/h 0,0l/m² 0,102klx 0,0min
04:55 23,2°C 83,4% 20,2°C 1020,6hPa 23,2°C 0,0km/h (0Bft) 0,0km/h 0,0l/m² 0,059klx 0,0min
04:50 23,2°C 83,1% 20,2°C 1020,5hPa 23,2°C 0,0km/h (0Bft) 0,0km/h 0,0l/m² 0,033klx 0,0min
04:45 23,3°C 82,2% 20,1°C 1020,5hPa 23,3°C 0,0km/h (0Bft) 0,0km/h 0,0l/m² 0,018klx 0,0min
04:40 23,5°C 81,5% 20,2°C 1020,5hPa 23,5°C 0,0km/h (0Bft) 0,0km/h 0,0l/m² 0,010klx 0,0min
04:35 23,6°C 81,2% 20,2°C 1020,4hPa 23,6°C 0,0km/h (0Bft) 0,0km/h 0,0l/m² 0,005klx 0,0min
04:30 23,5°C 81,3% 20,1°C 1020,4hPa 23,5°C 0,0km/h (0Bft) 0,0km/h 0,0l/m² 0,003klx 0,0min
04:25 23,5°C 81,0% 20,1°C 1020,4hPa 23,5°C 0,0km/h (0Bft) 0,0km/h 0,0l/m² 0,002klx 0,0min
04:20 23,6°C 80,6% 20,1°C 1020,4hPa 23,6°C 0,0km/h (0Bft) 0,0km/h 0,0l/m² 0,001klx 0,0min
04:15 23,6°C 81,2% 20,2°C 1020,3hPa 23,6°C 0,0km/h (0Bft) 0,0km/h 0,0l/m² 0,001klx 0,0min
04:10 23,6°C 80,9% 20,2°C 1020,3hPa 23,6°C 0,0km/h (0Bft) 0,0km/h 0,0l/m² 0,001klx 0,0min
04:05 23,7°C 80,7% 20,2°C 1020,3hPa 23,7°C 0,0km/h (0Bft) 0,0km/h 0,0l/m² 0,001klx 0,0min
04:00 23,9°C 79,8% 20,2°C 1020,3hPa 23,9°C 0,0km/h (0Bft) 0,0km/h 0,0l/m² 0,001klx 0,0min
03:55 23,9°C 79,6% 20,1°C 1020,2hPa 23,9°C 0,0km/h (0Bft) 0,0km/h 0,0l/m² 0,001klx 0,0min
03:50 23,9°C 79,7% 20,2°C 1020,2hPa 23,9°C 0,0km/h (0Bft) 0,0km/h 0,0l/m² 0,000klx 0,0min
03:45 24,1°C 79,0% 20,2°C 1020,2hPa 24,1°C 0,0km/h (0Bft) 0,0km/h 0,0l/m² 0,000klx 0,0min
03:40 24,1°C 79,2% 20,3°C 1020,2hPa 24,1°C 0,0km/h (0Bft) 0,0km/h 0,0l/m² 0,001klx 0,0min
03:35 24,3°C 78,5% 20,3°C 1020,2hPa 24,3°C 0,0km/h (0Bft) 0,0km/h 0,0l/m² 0,001klx 0,0min
03:30 24,3°C 78,6% 20,4°C 1020,2hPa 24,3°C 0,0km/h (0Bft) 0,0km/h 0,0l/m² 0,001klx 0,0min
03:25 24,3°C 78,5% 20,3°C 1020,2hPa 24,3°C 0,0km/h (0Bft) 0,0km/h 0,0l/m² 0,000klx 0,0min
03:20 24,4°C 78,0% 20,3°C 1020,2hPa 24,4°C 0,0km/h (0Bft) 0,0km/h 0,0l/m² 0,001klx 0,0min
03:15 24,4°C 77,6% 20,2°C 1020,2hPa 24,4°C 0,0km/h (0Bft) 0,0km/h 0,0l/m² 0,000klx 0,0min
03:10 24,6°C 77,0% 20,3°C 1020,2hPa 24,6°C 0,0km/h (0Bft) 0,0km/h 0,0l/m² 0,000klx 0,0min
03:05 24,6°C 77,3% 20,3°C 1020,2hPa 24,6°C 0,0km/h (0Bft) 0,0km/h 0,0l/m² 0,000klx 0,0min
03:00 24,7°C 76,8% 20,3°C 1020,1hPa 24,7°C 0,0km/h (0Bft) 0,0km/h 0,0l/m² 0,000klx 0,0min
02:55 24,6°C 77,2% 20,4°C 1020,1hPa 24,6°C 0,0km/h (0Bft) 0,0km/h 0,0l/m² 0,000klx 0,0min
02:50 24,7°C 77,1% 20,4°C 1020,1hPa 24,7°C 0,0km/h (0Bft) 0,0km/h 0,0l/m² 0,000klx 0,0min
02:45 24,8°C 76,2% 20,3°C 1020,1hPa 24,8°C 0,0km/h (0Bft) 0,0km/h 0,0l/m² 0,001klx 0,0min
02:40 24,9°C 75,6% 20,2°C 1020,0hPa 24,9°C 0,0km/h (0Bft) 0,0km/h 0,0l/m² 0,001klx 0,0min
02:35 25,2°C 73,5% 20,1°C 1020,0hPa 25,2°C 0,0km/h (0Bft) 0,0km/h 0,0l/m² 0,001klx 0,0min
02:30 25,4°C 72,2% 20,1°C 1020,0hPa 25,4°C 0,0km/h (0Bft) 0,0km/h 0,0l/m² 0,000klx 0,0min
02:25 25,7°C 70,1% 19,8°C 1019,9hPa 25,7°C 0,0km/h (0Bft) 0,0km/h 0,0l/m² 0,000klx 0,0min
02:20 25,7°C 70,2% 19,9°C 1019,8hPa 25,7°C 0,0km/h (0Bft) 0,0km/h 0,0l/m² 0,000klx 0,0min
02:15 25,5°C 72,2% 20,1°C 1019,8hPa 25,5°C 0,0km/h (0Bft) 0,0km/h 0,0l/m² 0,001klx 0,0min
02:10 25,5°C 73,2% 20,3°C 1019,8hPa 25,5°C 0,0km/h (0Bft) 0,0km/h 0,0l/m² 0,000klx 0,0min
02:05 25,9°C 71,6% 20,4°C 1019,7hPa 25,9°C 0,0km/h (0Bft) 0,0km/h 0,0l/m² 0,000klx 0,0min
02:00 26,0°C 70,9% 20,4°C 1019,7hPa 26,0°C 0,0km/h (0Bft) 0,0km/h 0,0l/m² 0,001klx 0,0min
01:55 26,2°C 70,1% 20,3°C 1019,7hPa 26,2°C 0,0km/h (0Bft) 0,0km/h 0,0l/m² 0,001klx 0,0min
01:50 26,2°C 70,0% 20,3°C 1019,7hPa 26,2°C 0,0km/h (0Bft) 0,0km/h 0,0l/m² 0,000klx 0,0min
01:45 26,2°C 70,2% 20,4°C 1019,7hPa 26,2°C 0,0km/h (0Bft) 0,0km/h 0,0l/m² 0,001klx 0,0min
01:40 26,4°C 69,5% 20,4°C 1019,6hPa 26,4°C 0,0km/h (0Bft) 0,0km/h 0,0l/m² 0,000klx 0,0min
01:35 26,1°C 71,3% 20,5°C 1019,6hPa 26,1°C 0,0km/h (0Bft) 0,0km/h 0,0l/m² 0,000klx 0,0min
01:30 26,1°C 71,6% 20,5°C 1019,6hPa 26,1°C 0,0km/h (0Bft) 0,0km/h 0,0l/m² 0,000klx 0,0min
01:25 26,0°C 72,0% 20,6°C 1019,5hPa 26,0°C 0,0km/h (0Bft) 0,0km/h 0,0l/m² 0,000klx 0,0min
01:20 26,1°C 71,8% 20,6°C 1019,5hPa 26,1°C 0,0km/h (0Bft) 0,0km/h 0,0l/m² 0,000klx 0,0min
01:15 26,1°C 71,5% 20,6°C 1019,4hPa 26,1°C 0,0km/h (0Bft) 0,0km/h 0,0l/m² 0,000klx 0,0min
01:10 26,2°C 71,5% 20,6°C 1019,4hPa 26,2°C 0,0km/h (0Bft) 0,0km/h 0,0l/m² 0,001klx 0,0min
01:05 25,9°C 72,8% 20,7°C 1019,3hPa 25,9°C 0,0km/h (0Bft) 0,0km/h 0,0l/m² 0,001klx 0,0min
01:00 25,9°C 73,0% 20,7°C 1019,3hPa 25,9°C 0,0km/h (0Bft) 0,0km/h 0,0l/m² 0,001klx 0,0min
00:55 25,9°C 73,1% 20,7°C 1019,3hPa 25,9°C 0,0km/h (0Bft) 0,0km/h 0,0l/m² 0,000klx 0,0min
00:50 25,9°C 72,9% 20,6°C 1019,2hPa 25,9°C 0,0km/h (0Bft) 0,0km/h 0,0l/m² 0,000klx 0,0min
00:45 25,9°C 72,6% 20,6°C 1019,1hPa 25,9°C 0,0km/h (0Bft) 0,0km/h 0,0l/m² 0,000klx 0,0min
00:40 26,0°C 72,3% 20,6°C 1019,1hPa 26,0°C 0,0km/h (0Bft) 0,0km/h 0,0l/m² 0,000klx 0,0min
00:35 26,2°C 71,4% 20,6°C 1019,1hPa 26,2°C 0,0km/h (0Bft) 0,0km/h 0,0l/m² 0,000klx 0,0min
00:30 26,3°C 71,2% 20,6°C 1019,0hPa 26,3°C 0,0km/h (0Bft) 0,0km/h 0,0l/m² 0,000klx 0,0min
00:25 26,3°C 70,9% 20,6°C 1019,0hPa 26,3°C 0,0km/h (0Bft) 0,0km/h 0,0l/m² 0,000klx 0,0min
00:20 26,5°C 70,6% 20,7°C 1019,0hPa 26,5°C 0,0km/h (0Bft) 0,0km/h 0,0l/m² 0,001klx 0,0min
00:15 26,6°C 69,8% 20,6°C 1018,9hPa 26,6°C 0,0km/h (0Bft) 0,0km/h 0,0l/m² 0,000klx 0,0min
00:10 26,7°C 69,5% 20,6°C 1018,9hPa 26,7°C 0,0km/h (0Bft) 0,0km/h 0,0l/m² 0,001klx 0,0min
00:05 26,8°C 68,9% 20,6°C 1018,9hPa 26,8°C 0,0km/h (0Bft) 0,0km/h 0,0l/m² 0,000klx 0,0min
00:00 27,0°C 68,1% 20,6°C 1018,8hPa 27,0°C 0,0km/h (0Bft) 0,0km/h 0,0l/m² 0,000klx 0,0min

Aktuelle Wetterdaten

26.06.2019 18:00 Uhr